Time;durP1;ratioP1;P1;durP2;ratioP2;P2;SDS_P1;SDS_P2;PMS_P1;PMS_P2;Temp;Humidity;BMP_temperature;BMP_pressure;BME280_temperature;BME280_humidity;BME280_pressure;Samples;Min_cycle;Max_cycle;Signal;HPM_P1;HPM_P2
2021/04/05 00:00:41;;;;;;;36.40;19.90;;;;;;;0.72;74.78;99207.81;117846;1206;22872;-59
2021/04/05 00:03:10;;;;;;;35.13;19.13;;;;;;;0.73;74.91;99196.86;117746;1206;22993;-60
2021/04/05 00:05:38;;;;;;;36.70;18.33;;;;;;;0.72;74.73;99200.60;117849;1209;22825;-59
2021/04/05 00:08:06;;;;;;;34.35;17.95;;;;;;;0.72;74.44;99203.28;117585;1205;23753;-59
2021/04/05 00:10:46;;;;;;;36.37;19.23;;;;;;;0.69;74.71;99206.36;117839;1205;22842;-60
2021/04/05 00:13:14;;;;;;;;;;;;;;;0.66;74.63;99202.23;117678;1211;22801;-60
2021/04/05 00:15:44;;;;;;;32.57;17.10;;;;;;;0.64;74.43;99198.09;116851;1205;25381;-56
2021/04/05 00:18:14;;;;;;;29.10;17.40;;;;;;;0.62;74.38;99194.78;117778;1205;22842;-55
2021/04/05 00:21:07;;;;;;;32.70;18.10;;;;;;;0.57;74.44;99197.26;117870;1205;22839;-55
2021/04/05 00:23:35;;;;;;;28.70;17.10;;;;;;;0.52;73.93;99194.34;117649;1209;22921;-55
2021/04/05 00:26:04;;;;;;;30.13;17.40;;;;;;;0.48;74.23;99182.37;117843;1205;22927;-55
2021/04/05 00:28:36;;;;;;;30.10;16.65;;;;;;;0.46;74.45;99184.42;117762;1205;22808;-55
2021/04/05 00:31:07;;;;;;;32.30;18.60;;;;;;;0.43;74.47;99179.48;117809;1205;22844;-56
2021/04/05 00:33:35;;;;;;;35.03;16.00;;;;;;;0.42;73.78;99177.83;117794;1206;23646;-56
2021/04/05 00:36:03;;;;;;;28.57;15.70;;;;;;;0.40;73.82;99180.70;117722;1205;22903;-55
2021/04/05 00:38:31;;;;;;;31.30;16.47;;;;;;;0.39;73.81;99187.09;117772;1205;22902;-55
2021/04/05 00:41:00;;;;;;;33.03;16.77;;;;;;;0.41;74.99;99181.53;117767;1205;22869;-55
2021/04/05 00:43:31;;;;;;;34.80;15.75;;;;;;;0.41;74.18;99173.50;117845;1209;22869;-55
2021/04/05 00:45:59;;;;;;;30.60;17.23;;;;;;;0.43;74.63;99177.63;117699;1205;22984;-54
2021/04/05 00:48:26;;;;;;;33.57;17.27;;;;;;;0.45;74.59;99183.59;117769;1206;23822;-54
2021/04/05 00:51:05;;;;;;;29.23;18.00;;;;;;;0.47;74.44;99183.39;117655;1205;24955;-54
2021/04/05 00:53:34;;;;;;;31.27;17.90;;;;;;;0.47;74.35;99178.86;117843;1209;22824;-54
2021/04/05 00:56:02;;;;;;;29.70;16.93;;;;;;;0.48;74.72;99177.83;117793;1206;22784;-54
2021/04/05 00:58:31;;;;;;;32.15;17.85;;;;;;;0.49;74.37;99170.62;117811;1205;22999;-55
2021/04/05 01:01:02;;;;;;;28.77;15.83;;;;;;;0.48;74.14;99172.47;117599;1206;24046;-54
2021/04/05 01:03:31;;;;;;;29.03;16.23;;;;;;;0.47;74.45;99164.63;117688;1209;22899;-55
2021/04/05 01:06:03;;;;;;;30.60;16.45;;;;;;;0.44;73.92;99167.70;117599;1209;22963;-54
2021/04/05 01:08:31;;;;;;;28.80;16.33;;;;;;;0.40;73.69;99164.63;117771;1206;24741;-55
2021/04/05 01:11:05;;;;;;;26.50;15.30;;;;;;;0.37;73.70;99156.16;117736;1205;22930;-55
2021/04/05 01:13:33;;;;;;;28.40;15.27;;;;;;;0.33;74.51;99167.27;117803;1205;22955;-54
2021/04/05 01:16:00;;;;;;;27.90;15.70;;;;;;;0.31;73.87;99161.28;116372;1206;26126;-54
2021/04/05 01:18:30;;;;;;;26.97;14.57;;;;;;;0.30;74.08;99161.48;117721;1206;23027;-54
2021/04/05 01:20:57;;;;;;;24.27;14.33;;;;;;;0.28;74.40;99159.03;117714;1205;23525;-55
2021/04/05 01:23:25;;;;;;;24.30;13.75;;;;;;;0.26;74.42;99161.08;117800;1206;22968;-55
2021/04/05 01:25:53;;;;;;;29.50;15.40;;;;;;;0.26;74.79;99158.40;117698;1205;22987;-55
2021/04/05 01:28:21;;;;;;;24.43;13.80;;;;;;;0.27;74.22;99160.05;117736;1205;22780;-55
2021/04/05 01:30:51;;;;;;;27.20;14.43;;;;;;;0.27;74.46;99157.38;117831;1205;22880;-54
2021/04/05 01:33:26;;;;;;;26.83;14.73;;;;;;;0.28;75.39;99159.03;117738;1206;25352;-55
2021/04/05 01:35:56;;;;;;;27.50;13.87;;;;;;;0.31;75.23;99155.09;117815;1209;22858;-54
2021/04/05 01:38:41;;;;;;;24.67;12.97;;;;;;;0.35;75.90;99154.50;117692;1205;23030;-55
2021/04/05 01:41:17;;;;;;;29.30;16.90;;;;;;;0.38;75.40;99141.73;117801;1205;22887;-55
2021/04/05 01:43:45;;;;;;;26.90;15.43;;;;;;;0.39;76.13;99140.70;117798;1206;22791;-55
2021/04/05 01:46:14;;;;;;;30.70;14.10;;;;;;;0.42;75.91;99146.50;117778;1209;22922;-55
2021/04/05 01:48:42;;;;;;;26.50;13.97;;;;;;;0.43;75.86;99133.92;117700;1205;22878;-56
2021/04/05 01:51:11;;;;;;;26.80;14.40;;;;;;;0.44;75.30;99135.55;117719;1206;22824;-56
2021/04/05 01:53:40;;;;;;;32.53;15.80;;;;;;;0.42;75.35;99135.78;117708;1208;22814;-56
2021/04/05 01:56:09;;;;;;;29.75;15.20;;;;;;;0.41;75.61;99134.13;117749;1205;22841;-56
2021/04/05 01:58:38;;;;;;;28.97;15.73;;;;;;;0.39;75.20;99136.17;117576;1205;22897;-56
2021/04/05 02:01:11;;;;;;;30.17;15.90;;;;;;;0.29;74.70;99122.31;117757;1205;23401;-56
2021/04/05 02:03:39;;;;;;;27.77;14.90;;;;;;;0.28;75.09;99126.05;116003;1209;23126;-54
2021/04/05 02:06:12;;;;;;;25.70;13.13;;;;;;;0.33;75.12;99132.44;113716;1206;23108;-54
2021/04/05 02:08:44;;;;;;;22.90;12.40;;;;;;;0.32;75.14;99132.64;117632;1205;22854;-56
2021/04/05 02:11:14;;;;;;;28.50;14.37;;;;;;;0.33;75.24;99131.61;117796;1205;22839;-56
2021/04/05 02:13:44;;;;;;;31.00;13.63;;;;;;;0.34;75.01;99127.91;117701;1208;22997;-56
2021/04/05 02:16:15;;;;;;;32.63;15.27;;;;;;;0.34;75.17;99127.91;116034;1206;23138;-54
2021/04/05 02:18:44;;;;;;;24.43;14.27;;;;;;;0.35;75.37;99137.59;117716;1205;23786;-56
2021/04/05 02:21:16;;;;;;;28.90;16.07;;;;;;;0.35;75.45;99137.59;117875;1205;22903;-56
2021/04/05 02:23:45;;;;;;;30.83;14.80;;;;;;;0.34;75.31;99131.41;117639;1209;22946;-56
2021/04/05 02:26:20;;;;;;;26.90;15.40;;;;;;;0.33;74.95;99137.80;117770;1206;22958;-58
2021/04/05 02:28:49;;;;;;;25.77;14.60;;;;;;;0.32;75.20;99129.95;117694;1205;22917;-58
2021/04/05 02:31:21;;;;;;;28.20;14.30;;;;;;;0.31;75.12;99137.17;117801;1206;22959;-58
2021/04/05 02:33:49;;;;;;;25.63;15.00;;;;;;;0.29;75.39;99136.54;117687;1205;22971;-58
2021/04/05 02:36:18;;;;;;;29.07;14.50;;;;;;;0.28;75.19;99139.45;117732;1205;23522;-58
2021/04/05 02:38:48;;;;;;;32.03;14.90;;;;;;;0.26;75.00;99128.10;117707;1205;22826;-58
2021/04/05 02:41:16;;;;;;;30.20;15.30;;;;;;;0.25;75.23;99127.27;117841;1206;23440;-59
2021/04/05 02:43:44;;;;;;;30.63;14.40;;;;;;;0.12;75.36;99110.33;117704;1206;23829;-58
2021/04/05 02:46:23;;;;;;;28.15;17.45;;;;;;;0.22;75.49;99127.67;117731;1205;23616;-58
2021/04/05 02:48:52;;;;;;;30.33;15.27;;;;;;;0.21;75.35;99120.66;117764;1206;22849;-56
2021/04/05 02:51:19;;;;;;;28.73;14.20;;;;;;;0.21;75.04;99122.51;117609;1205;22885;-56
2021/04/05 02:53:57;;;;;;;27.05;13.70;;;;;;;0.20;75.34;99123.53;117722;1208;22938;-56
2021/04/05 02:56:25;;;;;;;24.97;13.13;;;;;;;0.19;74.73;99125.39;117637;1206;22897;-54
2021/04/05 02:58:54;;;;;;;28.57;14.73;;;;;;;0.18;75.12;99120.23;117842;1205;23710;-55
2021/04/05 03:01:23;;;;;;;21.73;13.20;;;;;;;0.16;74.53;99116.92;117658;1206;22966;-54
2021/04/05 03:03:54;;;;;;;26.27;14.10;;;;;;;0.18;75.12;99120.23;117666;1205;23708;-55
2021/04/05 03:06:22;;;;;;;32.15;13.60;;;;;;;0.18;75.02;99113.02;117682;1209;22935;-55
2021/04/05 03:08:50;;;;;;;28.20;13.37;;;;;;;0.20;75.31;99110.14;117817;1205;22867;-54
2021/04/05 03:11:20;;;;;;;26.85;14.40;;;;;;;0.20;75.11;99113.65;117719;1206;22903;-55
2021/04/05 03:13:49;;;;;;;23.70;13.03;;;;;;;0.19;75.26;99105.81;117676;1206;23824;-54
2021/04/05 03:16:18;;;;;;;29.00;15.10;;;;;;;0.19;74.68;99105.81;117733;1205;22979;-55
2021/04/05 03:18:46;;;;;;;25.30;13.73;;;;;;;0.20;75.12;99102.11;117757;1206;22913;-55
2021/04/05 03:21:15;;;;;;;25.33;13.97;;;;;;;0.21;75.41;99106.44;117483;1206;23448;-54
2021/04/05 03:23:43;;;;;;;25.73;14.40;;;;;;;0.21;75.41;99104.59;117517;1209;23743;-54
2021/04/05 03:26:11;;;;;;;28.30;14.80;;;;;;;0.22;75.45;99097.38;117482;1205;22804;-56
2021/04/05 03:28:38;;;;;;;24.73;13.40;;;;;;;0.22;74.81;99100.05;117843;1205;22920;-56
2021/04/05 03:31:19;;;;;;;31.33;14.90;;;;;;;0.23;74.95;99099.86;117716;1205;22894;-56
2021/04/05 03:33:50;;;;;;;33.93;16.70;;;;;;;0.24;74.87;99098.83;117770;1209;22781;-56
2021/04/05 03:36:33;;;;;;;27.70;14.70;;;;;;;0.23;74.89;99102.53;117736;1206;22961;-56
2021/04/05 03:39:00;;;;;;;29.53;15.77;;;;;;;0.21;75.04;99104.59;117813;1205;22865;-56
2021/04/05 03:41:37;;;;;;;34.53;17.93;;;;;;;0.22;75.27;99095.52;117750;1206;23784;-56
2021/04/05 03:44:14;;;;;;;39.07;17.40;;;;;;;0.22;74.93;99094.70;117767;1208;22995;-56
2021/04/05 03:46:43;;;;;;;31.90;17.80;;;;;;;0.22;75.67;99089.34;117643;1209;22901;-57
2021/04/05 03:49:46;;;;;;;30.50;17.30;;;;;;;0.24;75.64;99096.15;117886;1209;23933;-59
2021/04/05 03:52:23;;;;;;;31.73;16.70;;;;;;;0.28;75.72;99093.90;117672;1205;23088;-58
2021/04/05 03:54:53;;;;;;;32.03;17.47;;;;;;;0.30;75.76;99095.33;117861;1205;22938;-58
2021/04/05 03:57:27;;;;;;;34.80;17.20;;;;;;;0.31;75.68;99091.62;114164;1206;25060;-57
2021/04/05 03:59:57;;;;;;;39.33;18.87;;;;;;;0.35;75.90;99095.55;113772;1206;23134;-57
2021/04/05 04:02:29;;;;;;;33.50;16.60;;;;;;;0.39;76.35;99090.63;113644;1209;23131;-57
2021/04/05 04:05:04;;;;;;;33.40;17.13;;;;;;;0.43;75.81;99088.37;117784;1205;22771;-57
2021/04/05 04:07:51;;;;;;;37.77;20.10;;;;;;;0.45;76.06;99088.97;117575;1209;22950;-58
2021/04/05 04:10:19;;;;;;;38.27;17.90;;;;;;;0.51;76.58;99085.48;117531;1205;22871;-57
2021/04/05 04:12:48;;;;;;;35.37;18.50;;;;;;;0.50;76.32;99071.25;117640;1205;23620;-57
2021/04/05 04:15:16;;;;;;;35.03;18.37;;;;;;;0.61;76.41;99081.36;117783;1205;22927;-59
2021/04/05 04:17:46;;;;;;;34.43;17.40;;;;;;;0.68;76.56;99084.06;117614;1209;23147;-57
2021/04/05 04:20:15;;;;;;;32.50;17.17;;;;;;;0.73;76.62;99081.57;117680;1206;22882;-57
2021/04/05 04:22:46;;;;;;;32.85;17.20;;;;;;;0.78;77.09;99080.97;117597;1206;22903;-57
2021/04/05 04:25:15;;;;;;;27.63;16.50;;;;;;;0.84;76.58;99074.79;117861;1206;22805;-58
2021/04/05 04:27:44;;;;;;;36.85;16.30;;;;;;;0.87;76.77;99075.18;117816;1208;22824;-58
2021/04/05 04:30:31;;;;;;;32.93;17.23;;;;;;;0.92;76.77;99078.08;117822;1208;22909;-58
2021/04/05 04:33:02;;;;;;;36.80;17.05;;;;;;;0.99;76.92;99070.88;117751;1206;22887;-58
2021/04/05 04:35:30;;;;;;;35.95;17.75;;;;;;;1.06;76.59;99070.84;117799;1205;22938;-58
2021/04/05 04:38:01;;;;;;;36.37;19.23;;;;;;;1.10;76.96;99061.36;117844;1206;22881;-56
2021/04/05 04:40:30;;;;;;;32.07;17.00;;;;;;;1.16;76.91;99059.68;117735;1206;22826;-57
2021/04/05 04:43:00;;;;;;;33.70;18.70;;;;;;;1.21;75.98;99055.35;117830;1205;22836;-57
2021/04/05 04:45:29;;;;;;;34.33;17.20;;;;;;;1.27;76.07;99059.06;117768;1206;23650;-57
2021/04/05 04:47:57;;;;;;;35.60;17.07;;;;;;;1.31;75.84;99057.59;117823;1205;24629;-57
2021/04/05 04:50:26;;;;;;;32.20;14.73;;;;;;;1.36;76.21;99053.25;117686;1205;22949;-57
2021/04/05 04:52:54;;;;;;;32.87;16.97;;;;;;;1.45;76.18;99055.70;117834;1205;22873;-57
2021/04/05 04:56:48;;;;;;;36.50;19.15;;;;;;;1.52;76.04;99048.47;113474;1205;25965;-56
2021/04/05 04:59:16;;;;;;;45.55;22.15;;;;;;;1.56;76.12;99049.70;117160;1209;23065;-57
2021/04/05 05:01:45;;;;;;;33.20;20.80;;;;;;;1.58;75.69;99048.46;117103;1209;22806;-57
2021/04/05 05:04:19;;;;;;;41.70;21.43;;;;;;;1.58;76.56;99043.09;117158;1209;23096;-57
2021/04/05 05:06:47;;;;;;;40.33;19.67;;;;;;;1.64;76.30;99038.71;114534;1212;23246;-62
2021/04/05 05:09:18;;;;;;;38.80;17.93;;;;;;;1.67;76.75;99033.75;117186;1209;22904;-64
2021/04/05 05:11:46;;;;;;;33.20;16.73;;;;;;;1.77;76.01;99044.03;117054;1209;23521;-64
2021/04/05 05:14:13;;;;;;;32.05;18.80;;;;;;;1.88;76.85;99043.35;117183;1209;23079;-64
2021/04/05 05:16:41;;;;;;;37.05;17.70;;;;;;;2.01;76.45;99040.63;117104;1212;24046;-64
2021/04/05 05:19:09;;;;;;;32.95;18.75;;;;;;;2.17;76.99;99030.39;117217;1209;22967;-63
2021/04/05 05:21:40;;;;;;;40.40;19.10;;;;;;;2.31;76.08;99031.98;117133;1209;23899;-62
2021/04/05 05:24:08;;;;;;;35.10;18.60;;;;;;;2.45;76.06;99030.86;117173;1209;23988;-62
2021/04/05 05:26:36;;;;;;;38.10;20.25;;;;;;;2.61;75.62;99032.16;117111;1212;22852;-62
2021/04/05 05:29:07;;;;;;;30.55;17.15;;;;;;;2.75;75.34;99025.63;117203;1209;22935;-63
2021/04/05 05:31:41;;;;;;;28.20;16.10;;;;;;;2.88;74.95;99036.31;117102;1208;22965;-62
2021/04/05 05:34:10;;;;;;;32.90;17.50;;;;;;;2.97;74.68;99026.90;117174;1209;22887;-62
2021/04/05 05:36:38;;;;;;;34.85;19.00;;;;;;;3.09;74.26;99026.99;117107;1215;22819;-63
2021/04/05 05:39:06;;;;;;;38.10;21.00;;;;;;;3.19;74.89;99029.98;117180;1209;23804;-62
2021/04/05 05:41:52;;;;;;;51.05;29.25;;;;;;;3.26;74.49;99019.98;117148;1209;23688;-62
2021/04/05 05:44:32;;;;;;;55.20;31.50;;;;;;;3.34;73.90;99019.69;117212;1209;23008;-62
2021/04/05 05:47:18;;;;;;;58.20;30.27;;;;;;;3.42;73.44;99021.27;117090;1209;23587;-62
2021/04/05 05:49:48;;;;;;;64.83;29.60;;;;;;;3.45;73.08;99016.27;117203;1209;23546;-63
2021/04/05 05:52:30;;;;;;;57.95;27.85;;;;;;;3.50;73.17;99010.19;117096;1209;22868;-62
2021/04/05 05:55:20;;;;;;;43.80;23.25;;;;;;;3.54;72.83;99004.14;117194;1208;22875;-63
2021/04/05 05:58:03;;;;;;;37.33;19.87;;;;;;;3.59;73.19;99010.73;117096;1209;22958;-64
2021/04/05 06:00:35;;;;;;;45.87;22.93;;;;;;;3.63;72.99;99001.13;117212;1215;22959;-64
2021/04/05 06:03:30;;;;;;;36.40;18.45;;;;;;;3.68;72.71;99002.11;117085;1214;22869;-64
2021/04/05 06:06:15;;;;;;;28.20;16.77;;;;;;;3.76;72.33;98998.27;115952;1210;23154;-64
2021/04/05 06:08:48;;;;;;;29.85;15.05;;;;;;;3.83;72.38;98999.84;117097;1214;22819;-64
2021/04/05 06:11:23;;;;;;;27.30;14.60;;;;;;;3.90;71.87;98997.86;117198;1209;22883;-65
2021/04/05 06:14:03;;;;;;;33.05;15.85;;;;;;;3.97;71.74;98999.66;117124;1209;22887;-65
2021/04/05 06:16:34;;;;;;;28.55;15.15;;;;;;;4.00;71.24;98999.22;117159;1214;24292;-63
2021/04/05 06:19:33;;;;;;;29.05;16.00;;;;;;;4.04;71.29;98990.42;117068;1209;22842;-63
2021/04/05 06:22:39;;;;;;;32.15;16.40;;;;;;;4.11;71.22;98993.86;116857;1212;22827;-63
2021/04/05 06:25:24;;;;;;;30.85;16.40;;;;;;;4.21;70.74;98991.42;116894;1212;22961;-63
2021/04/05 06:27:53;;;;;;;27.10;13.90;;;;;;;4.30;70.65;98983.02;116701;1212;23000;-62
2021/04/05 06:30:43;;;;;;;27.10;14.80;;;;;;;4.38;70.54;98982.67;116862;1212;22947;-62
2021/04/05 06:33:35;;;;;;;28.40;14.10;;;;;;;4.49;70.65;98981.88;116786;1212;22886;-62
2021/04/05 06:36:23;;;;;;;29.50;15.75;;;;;;;4.60;70.43;98984.62;115391;1219;23556;-62
2021/04/05 06:39:00;;;;;;;30.67;17.03;;;;;;;4.72;70.21;98979.23;116789;1212;23019;-63
2021/04/05 06:41:34;;;;;;;32.20;16.80;;;;;;;4.84;69.94;98974.66;116825;1212;22912;-63
2021/04/05 06:44:23;;;;;;;34.60;16.80;;;;;;;4.97;69.91;98982.52;116695;1212;22926;-63
2021/04/05 06:47:15;;;;;;;23.40;14.50;;;;;;;5.08;68.60;98982.73;116873;1212;22989;-63
2021/04/05 06:50:18;;;;;;;20.93;12.00;;;;;;;5.19;67.81;98988.16;116809;1212;23111;-63
2021/04/05 06:52:54;;;;;;;22.80;11.80;;;;;;;5.29;67.06;98982.14;116860;1213;23733;-62
2021/04/05 06:55:57;;;;;;;24.25;12.50;;;;;;;5.35;65.69;98978.48;116795;1212;22970;-63
2021/04/05 06:58:38;;;;;;;17.80;10.80;;;;;;;5.34;65.18;98980.36;116930;1209;22914;-63
2021/04/05 07:01:25;;;;;;;17.00;9.60;;;;;;;5.38;65.00;98979.89;117040;1212;22891;-63
2021/04/05 07:04:17;;;;;;;12.35;7.05;;;;;;;5.44;64.50;98978.95;117101;1212;22966;-63
2021/04/05 07:06:55;;;;;;;11.05;6.65;;;;;;;5.51;63.86;98979.63;117144;1212;23587;-61
2021/04/05 07:09:49;;;;;;;10.90;6.20;;;;;;;5.57;62.99;98976.80;117045;1212;22794;-60
2021/04/05 07:12:39;;;;;;;14.20;7.10;;;;;;;5.63;61.83;98967.72;116782;1214;22868;-60
2021/04/05 07:15:23;;;;;;;17.15;8.10;;;;;;;5.69;62.68;98971.36;116654;1214;23618;-60
2021/04/05 07:17:57;;;;;;;14.10;7.30;;;;;;;5.77;61.20;98970.17;116738;1215;23899;-60
2021/04/05 07:20:35;;;;;;;17.30;7.30;;;;;;;5.81;60.52;98968.61;116712;1215;23790;-60
2021/04/05 07:23:22;;;;;;;13.70;7.10;;;;;;;5.85;60.28;98965.20;116813;1215;22931;-61
2021/04/05 07:26:18;;;;;;;13.05;5.45;;;;;;;5.94;59.62;98954.84;116491;1214;22868;-61
2021/04/05 07:29:08;;;;;;;9.50;5.00;;;;;;;6.03;59.21;98953.41;116709;1218;23017;-61
2021/04/05 07:31:56;;;;;;;7.40;4.20;;;;;;;6.15;57.42;98947.94;116528;1215;22991;-61
2021/04/05 07:34:55;;;;;;;7.95;4.00;;;;;;;6.24;56.42;98952.69;116788;1215;22837;-61
2021/04/05 07:38:00;;;;;;;7.15;3.85;;;;;;;6.31;55.27;98945.25;113205;1213;23182;-60
2021/04/05 07:40:55;;;;;;;6.30;3.10;;;;;;;6.38;53.71;98945.08;112898;1216;23146;-60
2021/04/05 07:44:03;;;;;;;6.80;3.05;;;;;;;6.45;53.21;98937.64;116769;1215;22996;-60
2021/04/05 07:47:00;;;;;;;5.50;3.05;;;;;;;6.49;50.87;98932.56;116692;1214;22980;-61
2021/04/05 07:49:49;;;;;;;6.15;3.00;;;;;;;6.44;50.43;98930.59;117055;1212;22861;-61
2021/04/05 07:52:45;;;;;;;10.80;3.10;;;;;;;6.45;51.76;98925.99;116786;1212;23646;-61
2021/04/05 07:55:13;;;;;;;8.23;3.77;;;;;;;6.51;52.36;98920.41;116825;1212;22876;-61
2021/04/05 07:58:16;;;;;;;7.25;3.25;;;;;;;6.57;51.55;98916.72;116714;1212;22903;-60
2021/04/05 08:01:02;;;;;;;6.30;3.00;;;;;;;6.65;51.69;98916.30;116749;1216;22852;-61
2021/04/05 08:04:03;;;;;;;4.63;2.80;;;;;;;6.70;51.64;98913.67;116810;1212;22891;-61
2021/04/05 08:06:49;;;;;;;11.20;3.20;;;;;;;6.79;52.10;98910.53;114750;1213;23464;-60
2021/04/05 08:09:26;;;;;;;3.00;1.70;;;;;;;6.88;50.36;98909.06;116957;1212;23938;-61
2021/04/05 08:12:16;;;;;;;2.90;1.70;;;;;;;6.92;50.09;98902.91;116880;1212;22891;-61
2021/04/05 08:14:55;;;;;;;3.70;2.20;;;;;;;6.94;49.95;98889.09;116950;1212;23616;-61
2021/04/05 08:17:47;;;;;;;3.70;2.30;;;;;;;7.01;48.83;98892.45;116812;1212;23001;-61
2021/04/05 08:20:31;;;;;;;5.70;2.70;;;;;;;7.04;50.53;98884.66;116877;1212;23563;-61
2021/04/05 08:23:20;;;;;;;6.20;3.10;;;;;;;7.13;48.79;98895.86;116766;1215;22846;-61
2021/04/05 08:26:27;;;;;;;6.70;3.40;;;;;;;7.15;48.62;98891.02;116932;1212;23145;-61
2021/04/05 08:29:14;;;;;;;5.00;2.75;;;;;;;7.16;48.59;98884.53;116732;1217;22880;-61
2021/04/05 08:31:51;;;;;;;2.50;1.65;;;;;;;7.21;49.46;98879.19;116920;1212;22909;-61
2021/04/05 08:34:39;;;;;;;3.23;1.80;;;;;;;7.29;49.82;98867.89;117091;1212;23013;-61
2021/04/05 08:37:11;;;;;;;2.25;1.70;;;;;;;7.35;48.45;98868.79;117137;1212;22876;-64
2021/04/05 08:39:49;;;;;;;3.70;2.00;;;;;;;7.39;48.84;98864.48;116931;1211;22920;-65
2021/04/05 08:42:38;;;;;;;3.40;1.80;;;;;;;7.46;49.42;98867.83;117244;1212;22893;-64
2021/04/05 08:45:14;;;;;;;4.50;2.20;;;;;;;7.53;48.30;98854.06;117124;1212;23496;-64
2021/04/05 08:47:44;;;;;;;3.25;2.15;;;;;;;7.56;47.74;98854.38;117022;1211;23193;-64
2021/04/05 08:50:12;;;;;;;12.60;5.90;;;;;;;7.60;48.49;98849.27;116967;1212;22900;-64
2021/04/05 08:52:43;;;;;;;8.10;3.60;;;;;;;7.65;48.03;98843.88;117169;1214;23032;-64
2021/04/05 08:55:13;;;;;;;6.15;3.45;;;;;;;7.69;48.43;98839.59;117039;1212;22934;-64
2021/04/05 08:58:07;;;;;;;6.30;3.10;;;;;;;7.78;48.67;98843.50;116972;1212;22913;-64
2021/04/05 09:00:38;;;;;;;7.65;2.20;;;;;;;7.87;47.87;98828.39;116993;1210;22930;-64
2021/04/05 09:03:11;;;;;;;5.10;2.70;;;;;;;7.94;48.11;98826.27;117249;1209;22837;-64
2021/04/05 09:05:43;;;;;;;4.10;2.55;;;;;;;7.98;48.05;98821.16;116263;1212;23333;-60
2021/04/05 09:08:12;;;;;;;3.10;2.25;;;;;;;8.03;47.72;98819.31;117235;1209;22847;-60
2021/04/05 09:10:54;;;;;;;7.95;2.85;;;;;;;8.07;47.94;98820.44;117157;1212;22958;-61
2021/04/05 09:13:27;;;;;;;4.20;2.47;;;;;;;8.12;47.43;98815.03;117097;1209;22910;-61
2021/04/05 09:16:21;;;;;;;8.90;3.40;;;;;;;8.16;46.97;98805.31;117156;1212;22878;-61
2021/04/05 09:19:21;;;;;;;6.20;2.45;;;;;;;8.19;47.16;98808.59;117220;1209;23556;-61
2021/04/05 09:21:52;;;;;;;;;;;;;;;8.20;46.84;98802.08;117152;1216;22905;-61
2021/04/05 09:24:27;;;;;;;5.25;2.70;;;;;;;8.12;45.88;98797.94;117191;1209;21554;-61
2021/04/05 09:26:58;;;;;;;6.90;2.20;;;;;;;8.03;45.96;98797.61;117151;1209;22975;-61
2021/04/05 09:29:31;;;;;;;7.83;4.00;;;;;;;8.00;46.70;98792.70;117254;1208;23085;-60
2021/04/05 09:32:08;;;;;;;5.73;3.70;;;;;;;8.01;46.81;98791.63;117143;1212;22926;-61
2021/04/05 09:34:48;;;;;;;4.45;2.30;;;;;;;8.05;47.33;98789.22;117260;1212;22854;-61
2021/04/05 09:37:40;;;;;;;3.95;1.60;;;;;;;8.11;46.67;98782.73;117136;1209;22853;-61
2021/04/05 09:40:35;;;;;;;5.05;1.95;;;;;;;8.16;45.67;98780.89;117162;1209;22863;-65
2021/04/05 09:43:41;;;;;;;6.30;2.55;;;;;;;8.22;45.79;98778.22;117217;1212;22845;-65
2021/04/05 09:46:27;;;;;;;4.55;2.00;;;;;;;8.29;46.33;98778.80;117141;1209;22870;-66
2021/04/05 09:49:19;;;;;;;3.25;1.70;;;;;;;8.36;45.91;98771.30;117205;1209;23827;-65
2021/04/05 09:52:04;;;;;;;3.20;2.10;;;;;;;8.39;45.80;98770.75;117073;1209;23667;-65
2021/04/05 09:54:43;;;;;;;3.77;2.20;;;;;;;8.44;46.43;98773.50;117163;1213;22862;-65
2021/04/05 09:57:17;;;;;;;4.20;1.60;;;;;;;8.47;45.02;98773.80;117056;1209;23065;-65
2021/04/05 09:59:54;;;;;;;2.00;1.60;;;;;;;8.53;44.53;98769.20;117187;1209;22974;-65
2021/04/05 10:02:34;;;;;;;3.90;1.90;;;;;;;8.57;44.06;98770.31;117141;1209;22944;-65
2021/04/05 10:05:01;;;;;;;5.27;2.50;;;;;;;8.60;44.77;98764.37;117195;1212;22914;-65
2021/04/05 10:07:29;;;;;;;3.70;2.10;;;;;;;8.64;44.19;98762.77;117082;1208;22883;-65
2021/04/05 10:09:57;;;;;;;3.95;1.60;;;;;;;8.66;43.73;98751.61;117200;1209;22899;-65
2021/04/05 10:12:24;;;;;;;6.10;2.20;;;;;;;8.67;43.22;98753.25;117068;1209;22946;-65
2021/04/05 10:15:00;;;;;;;9.20;4.80;;;;;;;8.68;44.37;98750.27;117216;1212;22850;-65
2021/04/05 10:17:28;;;;;;;5.45;2.20;;;;;;;8.71;44.11;98747.03;113566;1209;23135;-67
2021/04/05 10:19:57;;;;;;;3.25;2.00;;;;;;;8.70;43.61;98742.68;117203;1209;23565;-67
2021/04/05 10:22:25;;;;;;;3.20;2.20;;;;;;;8.74;43.43;98743.80;117085;1209;22860;-67
2021/04/05 10:24:56;;;;;;;8.15;3.00;;;;;;;8.75;43.88;98740.00;117178;1209;23047;-67
2021/04/05 10:27:27;;;;;;;5.95;2.90;;;;;;;8.76;43.52;98743.53;117058;1213;22981;-67
2021/04/05 10:29:56;;;;;;;3.25;2.30;;;;;;;8.76;43.21;98736.20;117212;1209;22951;-67
2021/04/05 10:32:24;;;;;;;6.25;3.55;;;;;;;8.78;44.14;98733.23;117061;1208;23535;-67
2021/04/05 10:34:55;;;;;;;4.95;2.20;;;;;;;8.78;44.03;98734.05;117207;1208;23360;-67
2021/04/05 10:37:32;;;;;;;4.13;2.20;;;;;;;8.79;43.68;98719.38;117187;1208;22952;-65
2021/04/05 10:39:59;;;;;;;4.88;2.43;;;;;;;8.81;44.35;98729.95;117195;1209;22918;-65
2021/04/05 10:42:33;;;;;;;4.50;2.00;;;;;;;8.82;44.15;98721.55;117228;1209;22809;-65
2021/04/05 10:45:09;;;;;;;6.40;3.55;;;;;;;8.84;43.77;98715.84;117120;1209;22846;-65
2021/04/05 10:47:46;;;;;;;6.87;3.53;;;;;;;8.87;44.71;98720.75;117182;1209;23674;-65
2021/04/05 10:50:14;;;;;;;7.10;2.63;;;;;;;8.88;44.10;98713.42;117140;1209;22879;-64
2021/04/05 10:52:43;;;;;;;10.20;3.90;;;;;;;8.88;44.44;98706.09;117197;1212;22962;-65
2021/04/05 10:55:22;;;;;;;8.15;3.30;;;;;;;8.90;44.98;98700.39;116917;1209;22889;-65
2021/04/05 10:57:55;;;;;;;4.20;2.40;;;;;;;8.90;44.74;98701.21;117212;1209;22922;-65
2021/04/05 11:00:25;;;;;;;5.25;2.25;;;;;;;8.93;44.16;98697.16;117038;1209;23830;-65
2021/04/05 11:03:10;;;;;;;5.10;2.40;;;;;;;8.95;45.17;98694.95;117193;1212;22993;-65
2021/04/05 11:05:38;;;;;;;3.70;2.15;;;;;;;8.98;44.83;98684.38;117116;1209;22818;-65
2021/04/05 11:08:16;;;;;;;4.75;2.70;;;;;;;9.03;45.38;98673.53;117177;1209;23682;-65
2021/04/05 11:10:45;;;;;;;5.50;2.60;;;;;;;9.06;44.61;98681.16;117136;1209;22804;-65
2021/04/05 11:13:18;;;;;;;13.75;5.35;;;;;;;9.08;44.00;98670.02;117175;1212;23013;-65
2021/04/05 11:15:47;;;;;;;5.15;2.25;;;;;;;9.12;42.68;98673.81;116113;1209;23462;-64
2021/04/05 11:18:17;;;;;;;4.13;2.00;;;;;;;9.13;41.06;98661.86;113375;1212;26573;-64
2021/04/05 11:20:45;;;;;;;8.30;2.50;;;;;;;9.13;42.04;98673.55;117110;1215;23504;-65
2021/04/05 11:23:18;;;;;;;9.60;2.50;;;;;;;9.15;42.48;98665.13;117203;1212;22895;-65
2021/04/05 11:25:49;;;;;;;3.60;2.35;;;;;;;9.17;43.14;98668.39;117118;1209;22806;-65
2021/04/05 11:28:28;;;;;;;6.97;2.50;;;;;;;9.20;43.05;98662.42;117194;1209;22879;-65
2021/04/05 11:31:16;;;;;;;8.15;3.35;;;;;;;9.24;41.96;98658.06;117145;1209;22867;-65
2021/04/05 11:33:56;;;;;;;9.20;3.40;;;;;;;9.28;41.35;98652.91;117227;1212;23654;-65
2021/04/05 11:36:28;;;;;;;3.25;2.10;;;;;;;9.32;41.30;98646.66;116872;1209;23557;-65
2021/04/05 11:38:56;;;;;;;5.10;2.50;;;;;;;9.37;41.09;98643.95;117194;1212;22884;-65
2021/04/05 11:41:28;;;;;;;7.10;3.30;;;;;;;9.42;41.19;98635.78;117104;1208;22979;-65
2021/04/05 11:44:00;;;;;;;6.30;2.50;;;;;;;9.49;42.19;98630.91;117281;1209;22992;-65
2021/04/05 11:46:29;;;;;;;6.45;2.80;;;;;;;9.55;41.57;98623.54;117166;1209;22809;-65
2021/04/05 11:49:00;;;;;;;3.37;2.20;;;;;;;9.61;41.54;98632.52;117226;1212;22938;-65
2021/04/05 11:51:28;;;;;;;7.03;3.30;;;;;;;9.64;40.73;98629.26;117117;1209;24157;-65
2021/04/05 11:54:00;;;;;;;4.50;2.83;;;;;;;9.67;40.77;98625.97;117247;1209;23709;-65
2021/04/05 11:56:29;;;;;;;4.30;2.30;;;;;;;9.63;40.93;98619.47;117098;1209;23501;-65
2021/04/05 11:59:16;;;;;;;3.50;2.50;;;;;;;9.60;40.54;98612.67;117240;1209;22820;-65
2021/04/05 12:01:48;;;;;;;3.93;2.30;;;;;;;9.57;40.80;98614.02;117157;1209;22915;-65
2021/04/05 12:04:22;;;;;;;5.97;2.90;;;;;;;9.56;42.23;98606.95;117219;1209;22980;-64